Time;durP1;ratioP1;P1;durP2;ratioP2;P2;SDS_P1;SDS_P2;PMS_P1;PMS_P2;Temp;Humidity;BMP_temperature;BMP_pressure;BME280_temperature;BME280_humidity;BME280_pressure;Samples;Min_cycle;Max_cycle;Signal;HPM_P1;HPM_P2
2022/04/11 00:02:13;;;;;;;3.37;3.07;;;6.40;96.70;;;;;;5060673;28;20743;-38
2022/04/11 00:04:39;;;;;;;3.80;2.77;;;6.60;96.70;;;;;;5050142;28;20189;-39
2022/04/11 00:07:04;;;;;;;4.13;2.90;;;6.50;96.50;;;;;;5050411;28;20440;-40
2022/04/11 00:09:30;;;;;;;2.60;2.40;;;6.50;96.50;;;;;;5068921;28;20281;-34
2022/04/11 00:11:56;;;;;;;2.77;2.57;;;6.60;96.60;;;;;;5062654;28;20213;-35
2022/04/11 00:14:23;;;;;;;3.80;2.77;;;6.70;96.70;;;;;;5050909;28;20196;-36
2022/04/11 00:16:49;;;;;;;3.40;3.10;;;6.60;96.70;;;;;;5058340;28;20428;-34
2022/04/11 00:19:15;;;;;;;3.57;2.73;;;6.80;96.70;;;;;;5050560;28;20468;-39
2022/04/11 00:21:41;;;;;;;3.40;2.60;;;6.60;96.60;;;;;;5050803;28;20192;-39
2022/04/11 00:24:07;;;;;;;3.60;2.40;;;6.60;96.60;;;;;;5064535;28;20535;-35
2022/04/11 00:26:32;;;;;;;2.80;2.50;;;6.50;96.60;;;;;;5070858;28;20254;-40
2022/04/11 00:28:58;;;;;;;3.27;2.97;;;6.60;96.90;;;;;;5052791;28;20482;-35
2022/04/11 00:31:23;;;;;;;3.87;3.47;;;6.20;98.40;;;;;;5053109;28;20197;-36
2022/04/11 00:33:49;;;;;;;4.03;2.57;;;5.80;99.50;;;;;;5050626;28;20190;-39
2022/04/11 00:36:15;;;;;;;3.37;3.00;;;5.80;99.90;;;;;;5050050;28;20200;-35
2022/04/11 00:38:40;;;;;;;2.60;2.40;;;5.40;99.90;;;;;;5066459;28;20231;-39
2022/04/11 00:41:06;;;;;;;4.30;2.90;;;5.50;99.90;;;;;;5065969;28;20548;-36
2022/04/11 00:43:36;;;;;;;3.37;2.97;;;5.40;99.90;;;;;;5050392;28;20211;-38
2022/04/11 00:46:03;;;;;;;3.10;2.80;;;5.30;99.90;;;;;;5060220;28;20193;-38
2022/04/11 00:48:29;;;;;;;5.60;3.20;;;5.10;99.90;;;;;;5051805;28;20420;-40
2022/04/11 00:51:08;;;;;;;2.50;2.30;;;5.00;99.90;;;;;;5049352;28;20454;-36
2022/04/11 00:53:36;;;;;;;2.97;2.67;;;5.40;99.90;;;;;;5053964;28;20493;-38
2022/04/11 00:56:02;;;;;;;3.20;2.87;;;5.50;99.90;;;;;;5067682;28;20448;-37
2022/04/11 00:58:30;;;;;;;3.47;3.17;;;5.30;99.90;;;;;;5050113;28;20474;-39
2022/04/11 01:00:57;;;;;;;3.90;3.03;;;5.30;99.90;;;;;;5057116;28;21185;-35
2022/04/11 01:03:22;;;;;;;3.40;3.10;;;5.40;99.90;;;;;;5046840;28;20434;-37
2022/04/11 01:05:48;;;;;;;3.50;2.57;;;5.20;99.90;;;;;;5049772;28;20931;-40
2022/04/11 01:08:14;;;;;;;5.10;2.67;;;5.00;99.90;;;;;;5049995;28;20204;-38
2022/04/11 01:10:41;;;;;;;4.03;2.43;;;5.10;99.90;;;;;;5068871;28;21058;-35
2022/04/11 01:13:06;;;;;;;3.20;2.60;;;5.20;99.90;;;;;;5051153;28;20195;-40
2022/04/11 01:15:32;;;;;;;3.10;2.80;;;5.10;99.90;;;;;;5053239;28;20435;-37
2022/04/11 01:17:58;;;;;;;3.17;2.57;;;5.20;99.90;;;;;;5049426;28;20542;-38
2022/04/11 01:20:24;;;;;;;2.93;2.57;;;5.40;99.90;;;;;;5049077;28;20190;-40
2022/04/11 01:22:49;;;;;;;2.83;2.37;;;5.50;99.90;;;;;;5054211;28;20196;-37
2022/04/11 01:25:17;;;;;;;4.33;2.70;;;5.40;99.90;;;;;;5066004;28;20196;-37
2022/04/11 01:27:43;;;;;;;3.20;2.60;;;5.80;99.90;;;;;;5054380;28;20185;-38
2022/04/11 01:30:12;;;;;;;3.73;2.37;;;5.80;99.90;;;;;;5048749;28;20448;-36
2022/04/11 01:32:39;;;;;;;2.80;2.60;;;6.00;99.90;;;;;;5061622;28;20204;-37
2022/04/11 01:35:16;;;;;;;5.97;2.93;;;6.20;99.30;;;;;;5049641;28;20419;-38
2022/04/11 01:37:42;;;;;;;3.70;2.77;;;6.30;99.00;;;;;;5051047;28;20443;-37
2022/04/11 01:40:08;;;;;;;3.00;2.33;;;6.30;99.10;;;;;;5059820;28;20464;-40
2022/04/11 01:42:34;;;;;;;2.87;2.37;;;6.20;98.60;;;;;;5056659;28;20282;-39
2022/04/11 01:44:59;;;;;;;3.00;2.20;;;6.20;99.00;;;;;;5049233;28;20507;-38
2022/04/11 01:47:25;;;;;;;2.60;2.07;;;6.30;98.50;;;;;;5056256;28;20277;-36
2022/04/11 01:49:51;;;;;;;2.53;2.30;;;6.40;98.30;;;;;;5047163;28;20200;-36
2022/04/11 01:52:16;;;;;;;2.63;2.43;;;6.30;98.30;;;;;;5048430;28;20193;-39
2022/04/11 01:54:42;;;;;;;3.70;3.03;;;6.20;98.30;;;;;;5067685;28;20197;-38
2022/04/11 01:57:08;;;;;;;2.50;2.30;;;6.20;98.60;;;;;;5067321;28;20296;-35
2022/04/11 01:59:33;;;;;;;3.50;3.00;;;6.30;98.20;;;;;;5048196;28;20217;-35
2022/04/11 02:01:59;;;;;;;2.50;2.10;;;6.40;98.10;;;;;;5053203;28;20649;-40
2022/04/11 02:04:25;;;;;;;2.60;2.27;;;6.60;98.00;;;;;;5048286;28;20182;-37
2022/04/11 02:06:50;;;;;;;2.47;2.27;;;6.50;98.00;;;;;;5049144;28;20242;-40
2022/04/11 02:09:16;;;;;;;4.20;2.87;;;6.40;98.10;;;;;;5066562;28;20207;-37
2022/04/11 02:11:41;;;;;;;3.50;3.00;;;6.20;98.10;;;;;;5067311;28;20193;-38
2022/04/11 02:14:07;;;;;;;3.00;2.80;;;6.40;98.50;;;;;;5049205;28;20189;-39
2022/04/11 02:16:33;;;;;;;2.73;2.53;;;6.40;98.50;;;;;;5051784;28;20189;-39
2022/04/11 02:18:58;;;;;;;3.60;2.50;;;6.20;98.40;;;;;;5052977;28;20315;-40
2022/04/11 02:21:24;;;;;;;3.87;2.20;;;6.30;97.80;;;;;;5052481;28;20193;-40
2022/04/11 02:23:50;;;;;;;3.00;2.27;;;6.40;97.60;;;;;;5053087;28;20239;-40
2022/04/11 02:26:15;;;;;;;3.33;2.30;;;6.40;97.80;;;;;;5078380;28;20188;-39
2022/04/11 02:28:41;;;;;;;3.00;2.70;;;6.50;97.80;;;;;;5053549;28;20185;-40
2022/04/11 02:31:06;;;;;;;2.70;2.50;;;6.50;97.60;;;;;;5056595;28;20189;-39
2022/04/11 02:33:32;;;;;;;6.40;2.50;;;6.50;97.80;;;;;;5056274;28;20675;-40
2022/04/11 02:35:58;;;;;;;4.30;2.77;;;6.50;97.60;;;;;;5052731;28;20215;-37
2022/04/11 02:38:23;;;;;;;3.83;2.43;;;6.70;97.60;;;;;;5054507;28;20216;-39
2022/04/11 02:40:49;;;;;;;3.03;2.50;;;6.60;97.50;;;;;;5074941;28;20189;-36
2022/04/11 02:43:15;;;;;;;3.53;3.03;;;6.60;97.50;;;;;;5076046;28;20329;-40
2022/04/11 02:45:40;;;;;;;6.00;2.70;;;6.40;97.20;;;;;;5052632;28;20196;-37
2022/04/11 02:48:06;;;;;;;2.40;2.20;;;6.70;97.40;;;;;;5057203;28;20267;-38
2022/04/11 02:50:32;;;;;;;4.57;2.30;;;6.50;97.20;;;;;;5051864;28;20185;-38
2022/04/11 02:52:58;;;;;;;4.03;2.70;;;6.60;97.30;;;;;;5055966;28;20438;-41
2022/04/11 02:55:23;;;;;;;3.00;2.23;;;6.60;97.20;;;;;;5081759;28;20192;-40
2022/04/11 02:57:49;;;;;;;2.63;2.23;;;6.60;97.40;;;;;;5058955;28;20194;-39
2022/04/11 03:00:15;;;;;;;2.53;2.33;;;6.60;97.30;;;;;;5051959;28;20224;-38
2022/04/11 03:02:41;;;;;;;2.50;2.30;;;6.50;97.70;;;;;;5053408;28;20403;-38
2022/04/11 03:05:07;;;;;;;3.50;2.37;;;6.50;98.20;;;;;;5051483;28;20531;-40
2022/04/11 03:07:33;;;;;;;5.63;2.70;;;6.40;98.80;;;;;;5050284;28;20360;-40
2022/04/11 03:09:59;;;;;;;3.50;2.47;;;6.30;98.80;;;;;;5068311;28;20849;-40
2022/04/11 03:12:25;;;;;;;3.10;2.70;;;6.60;99.30;;;;;;5062417;28;20428;-40
2022/04/11 03:14:51;;;;;;;6.20;2.83;;;6.30;99.60;;;;;;5052232;28;20186;-37
2022/04/11 03:17:17;;;;;;;3.70;2.27;;;6.40;99.90;;;;;;5065295;28;20770;-38
2022/04/11 03:19:44;;;;;;;4.67;2.23;;;6.20;99.90;;;;;;5051591;28;20880;-39
2022/04/11 03:22:10;;;;;;;3.03;2.60;;;6.00;99.90;;;;;;5051696;28;20436;-33
2022/04/11 03:24:37;;;;;;;2.90;2.50;;;6.00;99.90;;;;;;5053511;28;20444;-39
2022/04/11 03:27:03;;;;;;;3.13;2.20;;;6.20;99.90;;;;;;5069282;28;20438;-38
2022/04/11 03:29:29;;;;;;;5.43;2.43;;;6.40;99.70;;;;;;5051787;28;20919;-39
2022/04/11 03:31:55;;;;;;;3.37;3.00;;;6.30;99.00;;;;;;5056927;28;20503;-37
2022/04/11 03:34:20;;;;;;;3.90;2.60;;;6.50;98.40;;;;;;5051858;28;20535;-38
2022/04/11 03:36:46;;;;;;;4.73;3.03;;;6.70;98.30;;;;;;5051809;28;20629;-40
2022/04/11 03:39:12;;;;;;;4.30;3.60;;;6.70;97.90;;;;;;5051392;28;21085;-40
2022/04/11 03:41:38;;;;;;;4.33;3.07;;;6.70;97.80;;;;;;5067027;28;20181;-37
2022/04/11 03:44:03;;;;;;;3.37;3.07;;;6.80;97.70;;;;;;5053922;28;20640;-37
2022/04/11 03:46:29;;;;;;;6.13;2.77;;;6.80;97.60;;;;;;5051530;28;20193;-39
2022/04/11 03:48:55;;;;;;;4.70;3.00;;;6.80;97.60;;;;;;5050009;28;20194;-40
2022/04/11 03:51:21;;;;;;;3.20;2.60;;;7.00;97.80;;;;;;5050952;28;20288;-35
2022/04/11 03:53:48;;;;;;;2.80;2.60;;;6.80;97.50;;;;;;5057280;28;20435;-39
2022/04/11 03:56:17;;;;;;;4.33;2.87;;;6.80;97.20;;;;;;5062976;28;20512;-36
2022/04/11 03:58:46;;;;;;;4.33;2.33;;;6.90;97.60;;;;;;5055670;28;20468;-40
2022/04/11 04:01:12;;;;;;;4.33;2.47;;;6.90;97.60;;;;;;5050713;28;20447;-38
2022/04/11 04:03:39;;;;;;;4.73;2.53;;;6.60;97.50;;;;;;5061427;28;20424;-35
2022/04/11 04:06:04;;;;;;;2.80;2.60;;;6.80;97.60;;;;;;5051041;28;20429;-37
2022/04/11 04:08:30;;;;;;;2.53;2.33;;;6.60;97.90;;;;;;5050394;28;20779;-37
2022/04/11 04:10:56;;;;;;;3.40;2.97;;;6.70;97.90;;;;;;5061391;28;20425;-39
2022/04/11 04:13:21;;;;;;;2.87;2.67;;;6.80;97.80;;;;;;5058655;28;20333;-35
2022/04/11 04:15:47;;;;;;;2.57;2.30;;;6.50;97.80;;;;;;5053215;28;20280;-38
2022/04/11 04:18:13;;;;;;;3.23;2.63;;;6.80;97.80;;;;;;5061849;28;20193;-37
2022/04/11 04:20:39;;;;;;;4.23;2.50;;;6.80;97.60;;;;;;5050208;28;20664;-39
2022/04/11 04:23:06;;;;;;;3.43;2.30;;;6.80;97.40;;;;;;5049999;28;20182;-40
2022/04/11 04:25:35;;;;;;;3.33;2.57;;;6.70;97.40;;;;;;5063358;28;21128;-40
2022/04/11 04:28:02;;;;;;;3.10;2.80;;;6.60;97.40;;;;;;5062697;28;20462;-39
2022/04/11 04:30:30;;;;;;;2.93;2.33;;;6.70;97.40;;;;;;5053662;28;20436;-39
2022/04/11 04:32:59;;;;;;;3.83;2.77;;;6.60;97.30;;;;;;5053063;28;20428;-36
2022/04/11 04:35:25;;;;;;;3.90;2.93;;;6.50;97.20;;;;;;5050350;28;20538;-40
2022/04/11 04:37:52;;;;;;;4.13;2.50;;;6.60;97.10;;;;;;5050164;28;20417;-37
2022/04/11 04:40:18;;;;;;;5.20;2.33;;;6.70;97.20;;;;;;5064731;28;20518;-39
2022/04/11 04:42:43;;;;;;;2.90;2.20;;;6.60;97.30;;;;;;5059211;28;20463;-38
2022/04/11 04:45:09;;;;;;;3.90;2.40;;;6.40;97.20;;;;;;5063485;28;20445;-40
2022/04/11 04:47:35;;;;;;;3.70;2.70;;;6.60;97.40;;;;;;5076353;28;20216;-38
2022/04/11 04:50:01;;;;;;;3.30;2.30;;;6.50;97.10;;;;;;5067814;28;20456;-38
2022/04/11 04:52:26;;;;;;;5.10;2.60;;;6.80;97.40;;;;;;5075081;28;20189;-40
2022/04/11 04:54:52;;;;;;;2.47;1.93;;;6.50;97.40;;;;;;5058517;28;20665;-39
2022/04/11 04:57:18;;;;;;;5.93;2.23;;;6.70;97.70;;;;;;5074384;28;20232;-37
2022/04/11 04:59:43;;;;;;;3.27;2.47;;;6.80;97.60;;;;;;5049887;28;20237;-35
2022/04/11 05:02:09;;;;;;;7.40;2.37;;;6.70;97.50;;;;;;5054424;28;20276;-38
2022/04/11 05:04:35;;;;;;;2.73;2.53;;;6.60;97.50;;;;;;5051644;28;20251;-38
2022/04/11 05:07:00;;;;;;;4.50;2.50;;;6.50;97.30;;;;;;5049731;28;20217;-37
2022/04/11 05:09:26;;;;;;;2.43;2.23;;;6.50;97.50;;;;;;5051809;28;20217;-38
2022/04/11 05:11:52;;;;;;;3.53;2.50;;;6.70;97.70;;;;;;5062683;28;20201;-40
2022/04/11 05:14:17;;;;;;;3.53;2.50;;;6.40;97.50;;;;;;5065345;28;20200;-35
2022/04/11 05:16:43;;;;;;;4.50;2.47;;;6.40;97.40;;;;;;5048829;28;20197;-37
2022/04/11 05:19:09;;;;;;;3.10;2.50;;;6.50;97.40;;;;;;5061627;28;20543;-38
2022/04/11 05:21:35;;;;;;;3.50;2.70;;;6.70;97.70;;;;;;5078108;28;20557;-37
2022/04/11 05:24:01;;;;;;;5.17;2.20;;;6.40;97.60;;;;;;5061792;28;20184;-37
2022/04/11 05:26:26;;;;;;;2.53;2.33;;;6.60;97.50;;;;;;5067060;28;20338;-37
2022/04/11 05:28:52;;;;;;;3.70;2.30;;;6.30;97.30;;;;;;5066331;28;20436;-38
2022/04/11 05:31:18;;;;;;;4.17;2.97;;;6.60;97.40;;;;;;5047650;28;20186;-39
2022/04/11 05:33:47;;;;;;;2.83;2.40;;;6.40;97.30;;;;;;5060425;28;20189;-36
2022/04/11 05:36:14;;;;;;;3.77;2.40;;;6.40;97.50;;;;;;5065635;28;20964;-35
2022/04/11 05:38:40;;;;;;;4.63;2.73;;;6.60;97.60;;;;;;5064346;28;20989;-39
2022/04/11 05:41:06;;;;;;;3.87;3.10;;;6.60;97.80;;;;;;5055626;28;20415;-34
2022/04/11 05:43:31;;;;;;;5.53;3.10;;;6.50;97.50;;;;;;5069562;28;20551;-40
2022/04/11 05:45:59;;;;;;;3.60;2.33;;;6.70;97.60;;;;;;5049448;28;20444;-40
2022/04/11 05:48:25;;;;;;;3.30;2.97;;;6.60;97.50;;;;;;5059537;28;20249;-39
2022/04/11 05:50:50;;;;;;;4.10;2.67;;;6.90;97.10;;;;;;5057155;28;20424;-38
2022/04/11 05:53:17;;;;;;;3.53;2.73;;;7.10;96.70;;;;;;5051729;28;20204;-37
2022/04/11 05:55:43;;;;;;;4.00;2.57;;;7.20;96.50;;;;;;5058867;28;20692;-37
2022/04/11 05:58:09;;;;;;;2.90;2.50;;;7.00;96.20;;;;;;5058210;28;20435;-39
2022/04/11 06:00:34;;;;;;;3.30;3.10;;;7.30;96.00;;;;;;5073236;28;20208;-38
2022/04/11 06:03:00;;;;;;;3.50;3.20;;;7.40;95.80;;;;;;5064380;28;20249;-35
2022/04/11 06:05:26;;;;;;;3.83;3.03;;;7.70;95.50;;;;;;5056653;28;20185;-38
2022/04/11 06:07:51;;;;;;;4.57;3.73;;;7.80;95.30;;;;;;5056443;28;20178;-38
2022/04/11 06:10:17;;;;;;;3.33;3.10;;;7.90;94.70;;;;;;5058541;28;20490;-39
2022/04/11 06:12:43;;;;;;;3.87;3.13;;;8.00;94.50;;;;;;5071106;28;20675;-36
2022/04/11 06:15:11;;;;;;;3.93;3.57;;;8.30;94.20;;;;;;5060975;28;20315;-36
2022/04/11 06:17:37;;;;;;;3.77;2.60;;;8.30;94.00;;;;;;5065970;28;20278;-40
2022/04/11 06:20:03;;;;;;;3.40;3.10;;;8.50;93.70;;;;;;5058520;28;20486;-37
2022/04/11 06:22:29;;;;;;;4.77;2.90;;;8.60;93.50;;;;;;5055194;28;20692;-38
2022/04/11 06:25:01;;;;;;;2.83;2.53;;;8.90;93.40;;;;;;5058497;28;20432;-40
2022/04/11 06:27:27;;;;;;;4.53;2.87;;;8.80;93.40;;;;;;5058392;28;20177;-36
2022/04/11 06:29:56;;;;;;;4.47;2.90;;;9.10;93.20;;;;;;5058203;28;20434;-37
2022/04/11 06:32:27;;;;;;;2.80;2.53;;;9.10;93.10;;;;;;5058599;28;20416;-39
2022/04/11 06:34:53;;;;;;;3.53;2.57;;;9.20;92.70;;;;;;5059411;28;20435;-38
2022/04/11 06:37:18;;;;;;;5.20;3.30;;;9.20;93.30;;;;;;5059613;28;20420;-38
2022/04/11 06:39:44;;;;;;;4.07;3.00;;;9.10;92.80;;;;;;5057412;28;20471;-38
2022/04/11 06:42:09;;;;;;;4.23;2.93;;;9.40;92.80;;;;;;5064454;28;20185;-38
2022/04/11 06:44:37;;;;;;;4.10;3.00;;;9.20;93.10;;;;;;5061985;28;20177;-38
2022/04/11 06:47:03;;;;;;;4.17;3.00;;;9.40;92.80;;;;;;5057528;28;20335;-36
2022/04/11 06:49:29;;;;;;;4.10;3.30;;;9.40;92.60;;;;;;5058082;28;20420;-35
2022/04/11 06:51:55;;;;;;;3.43;2.97;;;9.50;92.60;;;;;;5061382;28;20803;-35
2022/04/11 06:54:21;;;;;;;4.53;3.33;;;9.50;92.30;;;;;;5048401;28;20189;-39
2022/04/11 06:56:47;;;;;;;3.40;3.10;;;9.70;92.40;;;;;;5069440;28;20204;-35
2022/04/11 06:59:12;;;;;;;4.77;3.07;;;9.60;92.30;;;;;;5058881;28;20451;-40
2022/04/11 07:01:38;;;;;;;4.33;3.17;;;9.60;92.10;;;;;;5053845;28;20541;-39
2022/04/11 07:04:04;;;;;;;4.73;3.33;;;9.70;92.70;;;;;;5064800;28;20777;-39
2022/04/11 07:06:29;;;;;;;4.77;3.43;;;9.90;93.20;;;;;;5066186;28;20338;-37
2022/04/11 07:08:55;;;;;;;5.50;3.27;;;9.70;92.90;;;;;;5052217;28;20546;-37
2022/04/11 07:11:21;;;;;;;5.47;3.43;;;9.80;92.60;;;;;;5074384;28;20579;-39
2022/04/11 07:13:46;;;;;;;5.33;2.93;;;9.80;92.80;;;;;;5071446;28;20197;-35
2022/04/11 07:16:12;;;;;;;5.37;3.10;;;9.90;92.60;;;;;;5057539;28;20189;-40
2022/04/11 07:18:38;;;;;;;3.43;3.13;;;10.10;92.40;;;;;;5071944;28;20220;-38
2022/04/11 07:21:04;;;;;;;3.60;3.30;;;10.10;92.20;;;;;;5052353;28;20182;-38
2022/04/11 07:23:30;;;;;;;4.30;3.20;;;10.00;92.10;;;;;;5053518;28;20884;-36
2022/04/11 07:25:55;;;;;;;3.50;2.50;;;10.30;92.20;;;;;;5057544;28;20185;-35
2022/04/11 07:28:21;;;;;;;3.93;3.00;;;10.40;92.50;;;;;;5067349;28;20185;-38
2022/04/11 07:30:47;;;;;;;3.50;2.83;;;10.20;92.30;;;;;;5070729;28;20191;-38
2022/04/11 07:33:12;;;;;;;4.00;3.17;;;10.30;92.00;;;;;;5058973;28;20197;-36
2022/04/11 07:35:38;;;;;;;5.27;2.77;;;10.50;92.50;;;;;;5051710;28;20624;-38
2022/04/11 07:38:04;;;;;;;5.13;3.10;;;10.50;92.40;;;;;;5051437;28;20213;-34
2022/04/11 07:40:30;;;;;;;4.40;3.10;;;10.60;92.10;;;;;;5055245;28;20200;-37
2022/04/11 07:42:56;;;;;;;5.67;4.03;;;10.90;92.50;;;;;;5084570;28;20193;-36
2022/04/11 07:45:22;;;;;;;5.03;3.10;;;10.90;92.20;;;;;;5052117;28;20470;-36
2022/04/11 07:47:48;;;;;;;3.53;3.23;;;10.90;91.30;;;;;;5050589;28;20568;-38
2022/04/11 07:50:14;;;;;;;5.37;3.83;;;11.00;90.70;;;;;;5051512;28;20478;-37
2022/04/11 07:52:42;;;;;;;6.73;3.53;;;11.20;91.10;;;;;;5051349;28;20208;-38
2022/04/11 07:55:10;;;;;;;3.90;3.47;;;11.20;90.70;;;;;;5052112;28;20205;-38
2022/04/11 07:57:37;;;;;;;4.57;3.30;;;11.20;90.40;;;;;;5075443;28;20414;-40
2022/04/11 08:00:06;;;;;;;5.10;3.13;;;11.30;90.70;;;;;;5062096;28;20826;-37
2022/04/11 08:02:32;;;;;;;5.03;3.70;;;11.30;90.70;;;;;;5049975;28;20432;-38
2022/04/11 08:05:01;;;;;;;4.90;3.53;;;11.20;90.90;;;;;;5060043;28;20416;-37
2022/04/11 08:07:27;;;;;;;4.17;3.60;;;11.30;90.30;;;;;;5051274;28;20427;-35
2022/04/11 08:09:52;;;;;;;4.67;4.20;;;11.30;90.20;;;;;;5050190;28;20927;-38
2022/04/11 08:12:18;;;;;;;6.67;3.43;;;11.30;90.60;;;;;;5067085;28;20182;-37
2022/04/11 08:14:44;;;;;;;5.93;3.37;;;11.30;90.80;;;;;;5068409;28;20193;-35
2022/04/11 08:17:10;;;;;;;3.60;2.93;;;11.30;90.70;;;;;;5064627;28;20427;-34
2022/04/11 08:19:35;;;;;;;4.80;3.27;;;11.30;90.40;;;;;;5063650;28;20216;-38
2022/04/11 08:22:01;;;;;;;6.23;3.30;;;11.30;90.10;;;;;;5049428;28;20205;-38
2022/04/11 08:24:26;;;;;;;4.23;3.30;;;11.50;90.10;;;;;;5054936;28;20193;-41
2022/04/11 08:26:52;;;;;;;3.33;3.03;;;11.30;90.10;;;;;;5052433;28;20185;-38
2022/04/11 08:29:18;;;;;;;3.70;2.80;;;11.50;89.10;;;;;;5070114;28;20201;-40
2022/04/11 08:31:44;;;;;;;3.60;2.77;;;11.30;88.80;;;;;;5050148;28;20214;-38
2022/04/11 08:34:10;;;;;;;3.10;2.77;;;11.50;89.90;;;;;;5052778;28;20193;-36
2022/04/11 08:36:35;;;;;;;5.53;2.73;;;11.30;87.60;;;;;;5050575;28;20911;-36
2022/04/11 08:39:02;;;;;;;7.57;3.40;;;11.20;87.80;;;;;;5050499;28;20460;-40
2022/04/11 08:41:36;;;;;;;5.13;2.70;;;11.30;88.50;;;;;;5058238;28;20181;-40
2022/04/11 08:44:06;;;;;;;4.30;2.63;;;11.30;89.50;;;;;;5063063;28;20421;-35
2022/04/11 08:46:34;;;;;;;4.87;3.03;;;11.40;88.90;;;;;;5050266;28;20439;-40
2022/04/11 08:49:02;;;;;;;2.90;2.70;;;11.40;87.40;;;;;;5057020;28;20510;-35
2022/04/11 08:51:31;;;;;;;3.30;2.67;;;11.40;87.40;;;;;;5053411;28;20446;-37
2022/04/11 08:54:02;;;;;;;4.17;2.80;;;11.70;87.80;;;;;;5050187;28;20434;-39
2022/04/11 08:56:28;;;;;;;5.00;3.00;;;11.50;88.40;;;;;;5054044;28;20630;-38
2022/04/11 08:58:55;;;;;;;4.53;2.47;;;11.60;87.10;;;;;;5062036;28;20961;-36
2022/04/11 09:01:21;;;;;;;3.17;2.83;;;11.60;88.50;;;;;;5051806;28;20494;-38
2022/04/11 09:03:48;;;;;;;4.47;3.27;;;11.70;88.60;;;;;;5052204;28;20426;-40
2022/04/11 09:06:15;;;;;;;2.70;2.33;;;11.80;87.20;;;;;;5052422;28;20424;-38
2022/04/11 09:08:46;;;;;;;3.40;3.07;;;11.90;86.80;;;;;;5049830;28;20431;-41
2022/04/11 09:11:12;;;;;;;4.53;3.07;;;12.00;85.70;;;;;;5050951;28;20436;-38
2022/04/11 09:13:51;;;;;;;4.17;3.10;;;12.00;85.60;;;;;;5077591;28;20475;-41
2022/04/11 09:16:17;;;;;;;3.83;2.70;;;12.10;84.80;;;;;;5067128;28;20276;-35
2022/04/11 09:18:52;;;;;;;6.97;3.33;;;12.30;86.00;;;;;;5056538;28;20606;-38
2022/04/11 09:21:19;;;;;;;5.13;2.70;;;12.50;86.50;;;;;;5055178;28;20418;-38
2022/04/11 09:23:47;;;;;;;3.10;2.80;;;12.70;84.90;;;;;;5063639;28;20408;-39
2022/04/11 09:26:23;;;;;;;3.73;2.33;;;12.80;81.30;;;;;;5059825;28;20494;-35
2022/04/11 09:29:00;;;;;;;2.77;2.50;;;12.90;80.60;;;;;;5077201;28;20560;-37
2022/04/11 09:31:26;;;;;;;3.63;2.90;;;13.00;79.10;;;;;;5053316;28;20459;-40
2022/04/11 09:33:52;;;;;;;5.00;3.13;;;13.20;80.00;;;;;;5051903;28;20459;-39
2022/04/11 09:36:20;;;;;;;6.87;3.30;;;13.20;78.40;;;;;;5058640;28;20456;-40
2022/04/11 09:38:57;;;;;;;4.17;2.77;;;13.30;77.50;;;;;;5049072;28;20256;-39
2022/04/11 09:41:28;;;;;;;3.70;3.13;;;13.40;75.60;;;;;;5050158;28;20464;-38
2022/04/11 09:43:54;;;;;;;3.80;3.20;;;13.40;75.60;;;;;;5074245;28;20486;-41
2022/04/11 09:46:20;;;;;;;4.40;3.10;;;13.40;74.50;;;;;;5057691;28;20455;-37
2022/04/11 09:48:46;;;;;;;4.10;3.70;;;13.50;75.90;;;;;;5049850;28;20455;-41
2022/04/11 09:51:13;;;;;;;3.20;2.90;;;13.60;75.20;;;;;;5055094;28;20809;-38
2022/04/11 09:53:39;;;;;;;3.77;3.10;;;13.80;73.50;;;;;;5049034;28;20188;-38
2022/04/11 09:56:08;;;;;;;5.13;3.30;;;13.70;71.70;;;;;;5051770;28;20450;-37
2022/04/11 09:58:35;;;;;;;3.30;2.73;;;13.70;72.10;;;;;;5063116;28;20296;-40
2022/04/11 10:01:03;;;;;;;3.80;3.23;;;13.70;69.90;;;;;;5059758;28;20426;-40
2022/04/11 10:03:30;;;;;;;3.70;2.60;;;13.80;70.70;;;;;;5047642;28;20424;-37
2022/04/11 10:05:57;;;;;;;3.73;2.77;;;14.00;71.00;;;;;;5051578;28;20960;-41
2022/04/11 10:08:25;;;;;;;2.80;2.53;;;14.10;69.60;;;;;;5048882;28;20416;-37
2022/04/11 10:10:51;;;;;;;5.30;2.80;;;14.20;73.50;;;;;;5052153;28;20439;-36
2022/04/11 10:13:17;;;;;;;3.83;3.40;;;14.30;70.50;;;;;;5071422;28;20497;-38
2022/04/11 10:15:46;;;;;;;3.23;2.93;;;14.40;70.20;;;;;;5063055;28;20466;-37
2022/04/11 10:18:15;;;;;;;3.67;2.80;;;14.40;67.10;;;;;;5048931;28;20520;-38
2022/04/11 10:20:45;;;;;;;3.50;3.03;;;14.40;67.00;;;;;;5060853;28;20423;-36
2022/04/11 10:23:13;;;;;;;5.90;3.03;;;14.50;66.50;;;;;;5049300;28;20416;-39
2022/04/11 10:25:47;;;;;;;2.60;2.40;;;14.60;67.10;;;;;;5052339;28;20416;-36
2022/04/11 10:28:23;;;;;;;2.47;2.27;;;14.70;68.90;;;;;;5064235;28;20450;-39
2022/04/11 10:31:11;;;;;;;3.10;2.70;;;14.90;69.40;;;;;;5067791;28;20779;-41
2022/04/11 10:33:50;;;;;;;4.93;3.13;;;14.70;66.10;;;;;;5047415;28;20421;-41
2022/04/11 10:36:29;;;;;;;3.03;2.77;;;14.60;66.50;;;;;;5058874;28;20522;-37
2022/04/11 10:39:16;;;;;;;4.17;3.20;;;14.70;67.10;;;;;;5052609;28;20467;-39
2022/04/11 10:42:06;;;;;;;3.53;3.23;;;14.70;66.40;;;;;;5051996;28;20435;-39
2022/04/11 10:44:37;;;;;;;2.83;2.63;;;14.70;67.40;;;;;;5069507;28;21092;-41
2022/04/11 10:47:09;;;;;;;5.80;2.83;;;14.80;67.40;;;;;;5065653;28;20874;-39
2022/04/11 10:49:50;;;;;;;3.40;3.00;;;15.00;66.70;;;;;;5056378;28;20501;-38
2022/04/11 10:52:35;;;;;;;3.17;2.87;;;15.20;66.30;;;;;;5052649;28;20771;-42
2022/04/11 10:55:08;;;;;;;3.27;3.07;;;15.40;65.30;;;;;;5052267;28;20420;-39
2022/04/11 10:57:55;;;;;;;4.27;3.37;;;15.40;63.10;;;;;;5053565;28;20490;-35
2022/04/11 11:00:28;;;;;;;3.60;2.90;;;15.40;62.90;;;;;;5070040;28;20992;-37
2022/04/11 11:02:55;;;;;;;3.77;3.40;;;15.30;64.50;;;;;;5052336;28;20903;-38
2022/04/11 11:05:27;;;;;;;3.47;3.17;;;15.30;61.40;;;;;;5051502;28;20415;-40
2022/04/11 11:08:14;;;;;;;5.30;3.30;;;15.20;62.50;;;;;;5052294;28;20834;-36
2022/04/11 11:10:52;;;;;;;3.90;3.50;;;15.10;62.80;;;;;;5051577;28;20427;-40
2022/04/11 11:13:38;;;;;;;3.83;3.20;;;15.10;63.60;;;;;;5058654;28;20427;-35
2022/04/11 11:16:07;;;;;;;4.00;2.67;;;15.20;62.00;;;;;;5058100;28;20510;-41
2022/04/11 11:18:48;;;;;;;3.40;3.10;;;15.20;60.80;;;;;;5052077;28;20466;-39
2022/04/11 11:21:22;;;;;;;5.53;3.40;;;15.10;60.60;;;;;;5061019;28;20431;-38
2022/04/11 11:24:06;;;;;;;3.00;2.70;;;15.20;60.10;;;;;;5056171;28;20469;-38
2022/04/11 11:26:46;;;;;;;3.30;2.93;;;15.40;60.40;;;;;;5058863;28;20435;-35
2022/04/11 11:29:16;;;;;;;3.47;2.97;;;15.50;60.60;;;;;;5069768;28;21123;-35
2022/04/11 11:31:42;;;;;;;5.07;4.10;;;15.70;59.20;;;;;;5059395;28;20889;-38
2022/04/11 11:34:16;;;;;;;4.67;3.07;;;15.70;59.70;;;;;;5060895;28;20428;-37
2022/04/11 11:36:42;;;;;;;4.40;3.23;;;15.60;59.20;;;;;;5060950;28;20416;-38
2022/04/11 11:39:35;;;;;;;3.40;3.10;;;15.50;59.60;;;;;;5062409;28;20804;-38
2022/04/11 11:42:07;;;;;;;3.10;2.80;;;15.70;59.00;;;;;;5062497;28;20438;-38
2022/04/11 11:44:41;;;;;;;3.43;2.43;;;15.70;57.80;;;;;;5078626;28;20925;-39
2022/04/11 11:47:07;;;;;;;4.77;3.17;;;15.80;58.60;;;;;;5059657;28;20506;-40
2022/04/11 11:49:44;;;;;;;5.00;3.20;;;15.90;58.60;;;;;;5051730;28;20833;-41
2022/04/11 11:52:20;;;;;;;3.80;3.40;;;15.70;58.10;;;;;;5055545;28;20189;-39
2022/04/11 11:54:48;;;;;;;3.90;3.40;;;15.70;58.10;;;;;;5059391;28;20456;-38
2022/04/11 11:57:42;;;;;;;4.60;3.00;;;15.60;57.50;;;;;;5070097;28;20442;-40
2022/04/11 12:00:11;;;;;;;4.30;2.97;;;15.60;57.10;;;;;;5062508;28;20494;-36
2022/04/11 12:05:25;;;;;;;9.00;3.13;;;15.60;58.20;;;;;;5059618;28;20524;-35
2022/04/11 12:08:13;;;;;;;10.17;3.27;;;15.70;58.90;;;;;;5054285;28;20565;-37
2022/04/11 12:10:44;;;;;;;2.73;2.30;;;15.80;56.10;;;;;;5050405;28;20968;-41
2022/04/11 12:13:11;;;;;;;4.20;3.07;;;16.00;58.40;;;;;;5061944;28;20436;-39
2022/04/11 12:15:37;;;;;;;4.60;3.10;;;16.10;56.50;;;;;;5072354;28;20918;-39
2022/04/11 12:18:07;;;;;;;3.00;2.70;;;16.20;55.70;;;;;;5050961;28;20428;-38
2022/04/11 12:20:34;;;;;;;3.67;3.33;;;16.20;56.80;;;;;;5055060;28;20467;-40
2022/04/11 12:23:01;;;;;;;3.57;2.77;;;16.10;56.20;;;;;;5050914;28;20443;-38
2022/04/11 12:25:29;;;;;;;4.10;2.73;;;16.00;56.10;;;;;;5054525;28;20482;-34
2022/04/11 12:28:12;;;;;;;3.60;3.30;;;16.00;58.00;;;;;;5065936;28;20566;-39
2022/04/11 12:30:41;;;;;;;4.70;3.37;;;16.00;57.20;;;;;;5073709;28;20436;-39
2022/04/11 12:33:07;;;;;;;5.50;3.27;;;16.00;57.20;;;;;;5050629;28;20433;-38
2022/04/11 12:35:35;;;;;;;4.57;3.40;;;16.00;56.90;;;;;;5051387;28;20433;-36
2022/04/11 12:38:07;;;;;;;5.57;3.77;;;16.00;57.40;;;;;;5050658;28;20444;-39
2022/04/11 12:40:44;;;;;;;3.90;3.03;;;16.00;57.10;;;;;;5049644;28;20472;-37
2022/04/11 12:43:11;;;;;;;3.13;2.77;;;16.00;57.30;;;;;;5059312;28;20456;-39
2022/04/11 12:45:38;;;;;;;3.37;2.57;;;16.10;57.20;;;;;;5067917;28;20420;-41
2022/04/11 12:48:08;;;;;;;8.70;3.20;;;16.20;57.00;;;;;;5050367;28;20916;-38
2022/04/11 12:50:35;;;;;;;3.93;2.60;;;16.20;55.50;;;;;;5055151;28;20836;-40
2022/04/11 12:53:02;;;;;;;3.43;3.13;;;16.30;56.90;;;;;;5054655;28;20432;-40
2022/04/11 12:55:30;;;;;;;3.50;2.87;;;16.30;55.80;;;;;;5050237;28;20440;-35
2022/04/11 12:58:07;;;;;;;4.13;2.50;;;16.20;54.60;;;;;;5049261;28;20444;-41
2022/04/11 13:00:35;;;;;;;2.93;2.63;;;16.10;56.30;;;;;;5066675;28;20465;-40